This is the latest recevied weather packets stored in our database for station/object DH1NAI-6. If no packets are shown the sender has not sent any weather packets the latest 10 day(s).
| Time | Temp. | Humidity | Pressure | Rain* | Wind** | Luminosity | Snow |
|---|---|---|---|---|---|---|---|
| 1788046819 | 17.22° C | 78% | 1012.8 hPa | 0 mm | - | 0 W/m² | - |
| 1788046195 | 17.22° C | 79% | 1012.8 hPa | 0 mm | - | 0 W/m² | - |
| 1788045571 | 17.22° C | 79% | 1012.7 hPa | 0 mm | - | 0 W/m² | - |
| 1788044963 | 17.22° C | 79% | 1012.8 hPa | 0 mm | - | 0 W/m² | - |
| 1788044355 | 16.67° C | 79% | 1012.9 hPa | 0 mm | - | 0 W/m² | - |
| 1788043747 | 16.67° C | 80% | 1012.6 hPa | 0 mm | - | 0 W/m² | - |
| 1788043139 | 17.22° C | 79% | 1012.7 hPa | 0 mm | - | 0 W/m² | - |
| 1788042531 | 16.67° C | 80% | 1012.9 hPa | 0 mm | - | 0 W/m² | - |
| 1788041923 | 16.67° C | 80% | 1012.8 hPa | 0 mm | - | 0 W/m² | - |
| 1788041312 | 16.67° C | 79% | 1012.9 hPa | 0 mm | - | 0 W/m² | - |
| 1788040707 | 17.22° C | 79% | 1012.9 hPa | 0 mm | - | 0 W/m² | - |
| 1788040099 | 17.22° C | 78% | 1012.9 hPa | 0 mm | - | 0 W/m² | - |
| 1788039475 | 17.22° C | 78% | 1012.8 hPa | 0 mm | - | 0 W/m² | - |
| 1788038867 | 17.22° C | 79% | 1012.9 hPa | 0 mm | - | 0 W/m² | - |
| 1788038252 | 16.11° C | 84% | 1012.9 hPa | 0 mm | - | 0 W/m² | - |
| 1788037651 | 15.56° C | 86% | 1012.9 hPa | 0 mm | - | 0 W/m² | - |
| 1788037043 | 15.56° C | 85% | 1013.1 hPa | 0 mm | - | 0 W/m² | - |
| 1788036419 | 15.56° C | 84% | 1013 hPa | 0 mm | - | 0 W/m² | - |
| 1788035811 | 16.11° C | 82% | 1012.9 hPa | 0 mm | - | 0 W/m² | - |
| 1788035203 | 16.11° C | 82% | 1013 hPa | 0 mm | - | 0 W/m² | - |
| 1788034592 | 16.11° C | 81% | 1013.2 hPa | 0 mm | - | 0 W/m² | - |
| 1788033987 | 16.11° C | 83% | 1013.3 hPa | 0 mm | - | 0 W/m² | - |
| 1788033379 | 16.67° C | 82% | 1013.1 hPa | 0 mm | - | 0 W/m² | - |
| 1788032771 | 16.67° C | 82% | 1013.2 hPa | 0 mm | - | 0 W/m² | - |
| 1788032164 | 16.67° C | 80% | 1013.3 hPa | 0 mm | - | 0 W/m² | - |
* Rain latest hour (hover to see other rain measurements)
** Current wind speed in m/s (hover to see current wind gust speed)